Lake Elsinore, CA (92532)

11:10 AM PST en Enero 24, 2017 (GMT -0800)
Sunrise Springs | | Change Station
Aviso en curso: Frost Advisory

Alt 1263 ft 33.65 °N, 117.30 °W | Updated 41 seconds ago

Muy nublado
Muy nublado
51.4 ° F
Sensación térmica 51.4 ° F
N
0.0
Viento Variable Viento desde ONO
Gusts 0.0 mph

Hoy
Alta -- | Baja -- ° F
--% Posibilidad de precipitaciones
Ayer
Alta -- | Baja -- ° F
Precip. -- pul
Presión 30.03 pul
Visibilidad 10.0 Millas
Nubes Nubes dispersas 2400 ft
Muy nublado 3100 ft
Punto de rocío 46 ° F
Humedad 80%
Precipitaciones 0.00 pul
Espesor de la nieve No disponible.
6:50 AM 5:12 PM
Creciente menguante, 10% visible
METAR KF70 241855Z AUTO 22007KT 10SM SCT024 BKN031 10/02 A3003 RMK AO1
Presión 30.03 pul
Visibilidad 10.0 Millas
Nubes Nubes dispersas 2400 ft
Muy nublado 3100 ft
Punto de rocío 46 ° F
Humedad 80%
Precipitaciones 0.00 pul
Espesor de la nieve No disponible.
6:50 AM 5:12 PM
Creciente menguante, 10% visible
METAR KF70 241855Z AUTO 22007KT 10SM SCT024 BKN031 10/02 A3003 RMK AO1

Get Your Daily Forecast Email!

Thanks for signing up!

Be on the lookout for a verification email in your inbox.

You'll start receiving the daily forecast at 8 AM.

×

10-Day Weather Forecast

Almanac

Astronomía

Jan. 24, 2017 Salida Puesta
Hora real
Crepúsculo civil
Crepúsculo náutico
Crepúsculo astronómico
Luna
Horas de luz
Horas de luz
Tomorrow will be .
, % of the Moon is Illuminated

Extremos de hoy

Máximos del estado Bajos del estado

Community

WunderPhotos

Upload Photos

1,962,540 ¡fotos cargadas!

WunderBlog® & News

Nearby

Calidad del aire

  Calidad del aire Índice AQ Contaminante
Not available.

Grosos de nieve

Estación Profundido Altura

Actividad de terremotos

Ciudad Distance Mag. Tiempo y dato
Magnitud mínima muestra es 2,5.

Temperaturas de aguas costeras

Lugar Temperatura

Stations

Estaciones meteorológicas cercanas

Ubicación de la estación Temp. Vientos helados Punto de rocío Humedad Viento Precip. Alt Actualizado Tipo
                   

Watches & Warnings

Frost Advisory
Issued: 2:56 AM PST Jan. 24, 2017 – National Weather Service

... Frost advisory remains in effect until 8 am PST this morning...
... Frost advisory remains in effect from 9 PM this evening to
8 am PST Wednesday...

* location... inland portions of the inland Empire.

* Temperature... low temperatures in the mid 30s in southern and
eastern portions of the inland Empire early this morning... and
in the lower to mid 30s in all but the far western inland Empire
for late tonight into early Wednesday morning.

* Impacts... sensitive outdoor plants may be killed if left
uncovered.

Precautionary/preparedness actions...

A frost advisory means that widespread frost is expected.
Sensitive outdoor plants may be killed if left uncovered.